createdAt,value
2022-09-21T00:01:37.920Z,6.80
2022-09-21T00:04:06.277Z,7.30
2022-09-21T00:06:35.204Z,7.30
2022-09-21T00:09:05.516Z,6.80
2022-09-21T00:11:35.600Z,6.90
2022-09-21T00:14:08.193Z,6.80
2022-09-21T00:16:36.715Z,7.20
2022-09-21T00:19:05.165Z,6.10
2022-09-21T00:21:34.517Z,6.10
2022-09-21T00:24:03.102Z,6.60
2022-09-21T00:26:32.503Z,6.10
2022-09-21T00:29:02.737Z,6.30
2022-09-21T00:31:33.101Z,6.20
2022-09-21T00:34:03.893Z,6.00
2022-09-21T00:36:32.065Z,6.10
2022-09-21T00:39:01.744Z,6.20
2022-09-21T00:41:33.445Z,6.10
2022-09-21T00:44:16.422Z,5.70
2022-09-21T00:46:46.264Z,5.70
2022-09-21T00:49:15.259Z,6.00
2022-09-21T00:51:44.500Z,6.00
2022-09-21T00:54:18.084Z,5.90
2022-09-21T00:56:46.743Z,5.60
2022-09-21T00:59:21.397Z,5.70
2022-09-21T01:01:50.003Z,5.60
2022-09-21T01:04:19.474Z,5.90
2022-09-21T01:06:48.657Z,5.30
2022-09-21T01:09:18.303Z,5.30
2022-09-21T01:12:15.624Z,5.50
2022-09-21T01:18:09.929Z,5.10
2022-09-21T01:21:02.886Z,5.00
2022-09-21T01:24:13.052Z,5.90
2022-09-21T01:26:59.756Z,5.60
2022-09-21T01:29:31.511Z,5.60
2022-09-21T01:32:24.056Z,6.10
2022-09-21T01:34:57.723Z,6.20
2022-09-21T01:37:42.126Z,5.30
2022-09-21T01:40:16.870Z,5.70
2022-09-21T01:42:48.299Z,5.90
2022-09-21T01:45:21.195Z,6.40
2022-09-21T01:47:51.626Z,6.10
2022-09-21T01:50:27.398Z,5.90
2022-09-21T01:53:13.759Z,6.00
2022-09-21T01:55:50.033Z,5.70
2022-09-21T01:58:33.455Z,6.20
2022-09-21T02:01:02.084Z,5.50
2022-09-21T02:03:45.378Z,5.70
2022-09-21T02:06:13.953Z,5.60
2022-09-21T02:08:42.542Z,5.80
2022-09-21T02:11:12.860Z,5.90
2022-09-21T02:13:45.992Z,5.90
2022-09-21T02:16:25.434Z,6.30
2022-09-21T02:19:17.791Z,6.70
2022-09-21T02:22:06.076Z,6.70
2022-09-21T02:24:39.378Z,6.20
2022-09-21T02:27:13.178Z,8.00
2022-09-21T02:29:53.951Z,6.90
2022-09-21T02:32:21.779Z,6.50
2022-09-21T02:34:55.444Z,6.00
2022-09-21T02:37:40.779Z,6.10
2022-09-21T02:40:30.219Z,5.50
2022-09-21T02:43:03.831Z,5.90
2022-09-21T02:45:40.318Z,5.70
2022-09-21T02:50:47.951Z,5.50
2022-09-21T02:53:25.940Z,5.80
2022-09-21T02:55:56.733Z,5.50
2022-09-21T02:58:27.186Z,5.50
2022-09-21T03:00:56.872Z,5.90
2022-09-21T03:03:26.504Z,5.60
2022-09-21T03:05:56.068Z,5.30
2022-09-21T03:08:24.113Z,6.70
2022-09-21T03:10:52.642Z,6.60
2022-09-21T03:13:20.773Z,6.60
2022-09-21T03:15:49.202Z,8.70
2022-09-21T03:18:17.322Z,11.00
2022-09-21T03:20:46.727Z,7.70
2022-09-21T03:23:14.906Z,6.80
2022-09-21T03:25:46.302Z,5.70
2022-09-21T03:28:15.675Z,6.30
2022-09-21T03:30:43.982Z,5.70
2022-09-21T03:33:13.332Z,5.80
2022-09-21T03:35:41.611Z,6.10
2022-09-21T03:38:10.140Z,6.60
2022-09-21T03:40:38.091Z,5.80
2022-09-21T03:43:06.541Z,5.90
2022-09-21T03:45:34.664Z,6.90
2022-09-21T03:48:02.691Z,5.80
2022-09-21T03:50:30.598Z,6.10
2022-09-21T03:52:59.032Z,6.90
2022-09-21T03:55:27.721Z,6.60
2022-09-21T03:57:56.186Z,6.60
2022-09-21T04:00:24.272Z,6.30
2022-09-21T04:02:52.611Z,6.70
2022-09-21T04:05:21.132Z,6.20
2022-09-21T04:07:50.271Z,6.20
2022-09-21T04:10:22.172Z,7.20
2022-09-21T04:12:50.372Z,6.50
2022-09-21T04:15:19.818Z,7.10
2022-09-21T04:17:51.568Z,6.90
2022-09-21T04:20:20.866Z,7.10
2022-09-21T04:22:49.503Z,7.40
2022-09-21T04:25:18.505Z,7.20
2022-09-21T04:27:47.034Z,7.00
2022-09-21T04:30:16.684Z,6.70
2022-09-21T04:32:45.187Z,6.40
2022-09-21T04:35:13.258Z,6.40
2022-09-21T04:37:41.367Z,7.00
2022-09-21T04:40:09.899Z,7.10
2022-09-21T04:42:37.978Z,6.40
2022-09-21T04:45:06.509Z,6.10
2022-09-21T04:47:34.532Z,6.20
2022-09-21T04:50:02.504Z,5.30
2022-09-21T04:52:30.493Z,6.00
2022-09-21T04:54:58.489Z,6.30
2022-09-21T04:57:26.718Z,5.50
2022-09-21T04:59:55.299Z,5.90
2022-09-21T05:02:23.480Z,6.20
2022-09-21T05:04:51.443Z,6.20
2022-09-21T05:07:19.418Z,6.30
2022-09-21T05:10:02.861Z,6.40
2022-09-21T05:12:38.599Z,6.70
2022-09-21T05:15:11.409Z,6.60
2022-09-21T05:17:40.993Z,7.20
2022-09-21T05:20:11.220Z,7.20
2022-09-21T05:22:39.386Z,6.90
2022-09-21T05:25:08.376Z,7.00
2022-09-21T05:27:36.355Z,6.90
2022-09-21T05:30:06.077Z,6.60
2022-09-21T05:32:55.326Z,7.30
2022-09-21T05:35:42.853Z,7.60
2022-09-21T05:38:18.267Z,7.40
2022-09-21T05:40:50.381Z,7.20
2022-09-21T05:43:18.953Z,7.10
2022-09-21T05:45:53.399Z,7.50
2022-09-21T05:48:26.263Z,7.50
2022-09-21T05:51:12.842Z,7.50
2022-09-21T05:53:57.727Z,7.10
2022-09-21T05:56:31.539Z,6.80
2022-09-21T05:59:08.417Z,7.50
2022-09-21T06:02:09.108Z,7.20
2022-09-21T06:04:37.630Z,7.90
2022-09-21T06:07:05.700Z,7.50
2022-09-21T06:09:33.977Z,8.40
2022-09-21T06:12:02.460Z,7.60
2022-09-21T06:14:30.458Z,7.40
2022-09-21T06:16:58.740Z,7.20
2022-09-21T06:19:26.874Z,7.90
2022-09-21T06:21:55.059Z,7.80
2022-09-21T06:24:24.869Z,7.50
2022-09-21T06:26:53.461Z,7.70
2022-09-21T06:29:23.854Z,7.30
2022-09-21T06:31:51.958Z,7.20
2022-09-21T06:34:20.026Z,8.40
2022-09-21T06:36:48.105Z,7.90
2022-09-21T06:39:16.172Z,7.20
2022-09-21T06:41:44.447Z,7.00
2022-09-21T06:44:12.468Z,7.20
2022-09-21T06:46:40.485Z,8.10
2022-09-21T06:49:08.451Z,7.40
2022-09-21T06:51:36.494Z,7.20
2022-09-21T06:54:04.566Z,6.80
2022-09-21T06:56:34.307Z,6.30
2022-09-21T06:59:02.282Z,6.30
2022-09-21T07:01:30.401Z,6.50
2022-09-21T07:03:58.617Z,6.40
2022-09-21T07:06:26.902Z,7.10
2022-09-21T07:11:42.910Z,6.90
2022-09-21T07:14:11.085Z,6.20
2022-09-21T07:16:40.167Z,6.20
2022-09-21T07:19:11.915Z,6.20
2022-09-21T07:21:40.531Z,6.40
2022-09-21T07:24:12.462Z,6.40
2022-09-21T07:26:41.176Z,5.90
2022-09-21T07:29:09.344Z,6.20
2022-09-21T07:31:37.857Z,6.30
2022-09-21T07:34:06.104Z,7.50
2022-09-21T07:36:34.071Z,5.80
2022-09-21T07:39:03.483Z,6.10
2022-09-21T07:41:31.645Z,5.80
2022-09-21T07:43:59.725Z,7.20
2022-09-21T07:46:27.792Z,5.70
2022-09-21T07:48:56.583Z,5.70
2022-09-21T07:51:24.916Z,5.60
2022-09-21T07:53:57.026Z,6.10
2022-09-21T07:56:26.121Z,6.40
2022-09-21T07:59:06.085Z,5.80
2022-09-21T08:01:42.097Z,5.00
2022-09-21T08:04:11.437Z,5.20
2022-09-21T08:06:42.685Z,5.70
2022-09-21T08:09:10.756Z,5.60
2022-09-21T08:11:39.743Z,5.90
2022-09-21T08:14:07.929Z,5.30
2022-09-21T08:16:38.824Z,6.00
2022-09-21T08:19:07.446Z,5.70
2022-09-21T08:21:35.745Z,5.50
2022-09-21T08:24:03.794Z,5.30
2022-09-21T08:26:31.869Z,4.90
2022-09-21T08:28:59.941Z,5.30
2022-09-21T08:31:28.364Z,5.10
2022-09-21T08:33:57.888Z,5.50
2022-09-21T08:36:25.996Z,5.10
2022-09-21T08:38:55.241Z,5.30
2022-09-21T08:41:36.271Z,5.20
2022-09-21T08:44:17.887Z,6.20
2022-09-21T08:46:54.572Z,5.40
2022-09-21T08:49:29.009Z,5.70
2022-09-21T08:52:01.830Z,5.10
2022-09-21T08:54:39.167Z,4.80
2022-09-21T08:57:13.311Z,5.80
2022-09-21T08:59:50.631Z,6.70
2022-09-21T09:02:28.225Z,5.40
2022-09-21T09:05:07.966Z,5.60
2022-09-21T09:08:19.609Z,5.80
2022-09-21T09:11:15.380Z,6.00
2022-09-21T09:14:16.942Z,6.10
2022-09-21T09:17:20.034Z,5.00
2022-09-21T09:19:55.578Z,5.30
2022-09-21T09:22:28.977Z,5.90
2022-09-21T09:25:03.910Z,5.50
2022-09-21T09:27:45.379Z,5.90
2022-09-21T09:30:26.223Z,6.00
2022-09-21T09:33:36.122Z,5.60
2022-09-21T09:36:09.718Z,4.70
2022-09-21T09:38:42.706Z,5.40
2022-09-21T09:41:59.620Z,5.00
2022-09-21T09:44:58.414Z,5.00
2022-09-21T09:48:01.310Z,5.80
2022-09-21T09:50:33.987Z,5.40
2022-09-21T09:53:12.193Z,5.80
2022-09-21T09:55:46.845Z,4.60
2022-09-21T09:58:21.246Z,4.50
2022-09-21T10:00:54.843Z,3.70
2022-09-21T10:03:25.067Z,5.40
2022-09-21T10:05:53.848Z,4.80
2022-09-21T10:08:27.863Z,5.00
2022-09-21T10:10:56.961Z,5.00
2022-09-21T10:13:36.473Z,5.70
2022-09-21T10:16:10.581Z,4.60
2022-09-21T10:18:40.628Z,4.30
2022-09-21T10:21:36.952Z,3.10
2022-09-21T10:24:21.318Z,5.60
2022-09-21T10:27:12.046Z,4.00
2022-09-21T10:29:46.248Z,3.40
2022-09-21T10:32:15.081Z,3.50
2022-09-21T10:35:05.423Z,3.50
2022-09-21T10:37:41.204Z,3.90
2022-09-21T10:40:18.120Z,3.10
2022-09-21T10:42:49.602Z,3.20
2022-09-21T10:45:19.019Z,3.40
2022-09-21T10:47:50.591Z,3.50
2022-09-21T10:50:36.242Z,3.70
2022-09-21T10:53:09.950Z,4.00
2022-09-21T10:55:52.742Z,3.80
2022-09-21T10:58:33.521Z,3.60
2022-09-21T11:01:13.841Z,3.10
2022-09-21T11:03:59.271Z,3.50
2022-09-21T11:06:43.975Z,2.80
2022-09-21T11:09:57.373Z,2.70
2022-09-21T11:12:45.714Z,2.00
2022-09-21T11:15:36.263Z,2.20
2022-09-21T11:18:22.717Z,2.10
2022-09-21T11:20:59.827Z,2.40
2022-09-21T11:24:16.004Z,2.50
2022-09-21T11:26:56.177Z,2.30
2022-09-21T11:29:32.020Z,2.10
2022-09-21T11:32:12.676Z,2.30
2022-09-21T11:34:57.849Z,2.30
2022-09-21T11:37:44.464Z,2.90
2022-09-21T11:43:22.913Z,2.50
2022-09-21T11:46:16.242Z,2.20
2022-09-21T11:49:03.988Z,2.30
2022-09-21T11:51:56.054Z,3.20
2022-09-21T11:54:38.137Z,3.00
2022-09-21T11:57:19.410Z,2.50
2022-09-21T12:00:10.035Z,2.00
2022-09-21T12:02:52.989Z,2.00
2022-09-21T12:05:36.053Z,2.20
2022-09-21T12:08:26.144Z,2.10
2022-09-21T12:11:13.572Z,2.30
2022-09-21T12:13:57.716Z,3.70
2022-09-21T12:16:47.612Z,2.30
2022-09-21T12:19:24.064Z,2.10
2022-09-21T12:22:00.068Z,2.40
2022-09-21T12:24:34.203Z,1.90
2022-09-21T12:27:10.090Z,2.00
2022-09-21T12:32:47.706Z,1.80
2022-09-21T12:35:21.192Z,2.40
2022-09-21T12:37:59.923Z,1.80
2022-09-21T12:40:43.612Z,1.60
2022-09-21T12:43:35.188Z,2.30
2022-09-21T12:46:09.589Z,1.80
2022-09-21T12:48:40.293Z,1.90
2022-09-21T12:51:18.754Z,2.20
2022-09-21T12:53:51.145Z,2.10
2022-09-21T12:56:22.717Z,1.80
2022-09-21T12:58:51.367Z,1.70
2022-09-21T13:01:57.861Z,2.00
2022-09-21T13:04:55.893Z,1.80
2022-09-21T13:08:01.382Z,1.70
2022-09-21T13:10:31.589Z,1.90
2022-09-21T13:13:03.221Z,2.30
2022-09-21T13:15:41.246Z,2.10
2022-09-21T13:18:29.723Z,1.70
2022-09-21T13:21:28.093Z,1.80
2022-09-21T13:23:58.994Z,1.90
2022-09-21T13:26:35.983Z,1.50
2022-09-21T13:29:25.216Z,1.50
2022-09-21T13:32:14.074Z,1.60
2022-09-21T13:34:44.041Z,1.80
2022-09-21T13:37:12.118Z,1.50
2022-09-21T13:39:44.895Z,1.40
2022-09-21T13:42:34.518Z,1.70
2022-09-21T13:45:14.637Z,1.60
2022-09-21T13:47:47.950Z,2.40
2022-09-21T13:50:43.134Z,1.30
2022-09-21T13:53:23.958Z,1.30
2022-09-21T13:56:01.700Z,1.40
2022-09-21T13:58:32.894Z,1.70
2022-09-21T14:01:35.400Z,1.90
2022-09-21T14:04:06.566Z,1.80
2022-09-21T14:06:42.445Z,1.60
2022-09-21T14:09:24.833Z,1.90
2022-09-21T14:11:57.618Z,1.80
2022-09-21T14:14:32.857Z,1.50
2022-09-21T14:17:02.158Z,1.30
2022-09-21T14:19:30.736Z,2.00
2022-09-21T14:22:07.716Z,1.60
2022-09-21T14:24:43.984Z,1.50
2022-09-21T14:27:41.204Z,1.40
2022-09-21T14:30:30.306Z,3.00
2022-09-21T14:33:02.185Z,2.20
2022-09-21T14:35:37.918Z,2.60
2022-09-21T14:40:56.240Z,1.90
2022-09-21T14:43:35.376Z,2.60
2022-09-21T14:46:21.391Z,2.20
2022-09-21T14:49:17.018Z,2.20
2022-09-21T14:51:55.671Z,2.00
2022-09-21T14:54:36.207Z,2.70
2022-09-21T14:57:46.056Z,2.30
2022-09-21T15:00:43.044Z,1.80
2022-09-21T15:03:32.926Z,2.50
2022-09-21T15:06:00.961Z,1.70
2022-09-21T15:09:19.723Z,1.60
2022-09-21T15:11:59.777Z,3.20
2022-09-21T15:14:42.593Z,2.50
2022-09-21T15:17:52.017Z,2.10
2022-09-21T15:20:25.863Z,1.90
2022-09-21T15:22:58.652Z,1.90
2022-09-21T15:25:31.724Z,1.80
2022-09-21T15:28:00.596Z,2.50
2022-09-21T15:30:33.233Z,1.90
2022-09-21T15:33:02.953Z,2.00
2022-09-21T15:35:32.915Z,1.90
2022-09-21T15:38:01.697Z,2.30
2022-09-21T15:40:47.172Z,1.80
2022-09-21T15:43:21.164Z,1.80
2022-09-21T15:46:02.376Z,2.10
2022-09-21T15:48:36.537Z,2.20
2022-09-21T15:51:14.442Z,1.80
2022-09-21T15:53:50.233Z,2.50
2022-09-21T15:56:20.935Z,3.00
2022-09-21T15:58:50.066Z,3.70
2022-09-21T16:01:21.817Z,3.20
2022-09-21T16:04:03.287Z,3.00
2022-09-21T16:06:41.831Z,2.40
2022-09-21T16:09:26.076Z,1.90
2022-09-21T16:11:54.972Z,1.70
2022-09-21T16:14:41.855Z,2.10
2022-09-21T16:17:09.851Z,2.50
2022-09-21T16:19:44.772Z,2.70
2022-09-21T16:22:15.829Z,2.80
2022-09-21T16:24:52.806Z,2.20
2022-09-21T16:27:23.813Z,2.70
2022-09-21T16:29:54.584Z,3.40
2022-09-21T16:32:34.119Z,3.80
2022-09-21T16:35:31.805Z,3.60
2022-09-21T16:38:01.499Z,3.00
2022-09-21T16:40:29.897Z,3.00
2022-09-21T16:42:58.891Z,2.00
2022-09-21T16:45:32.479Z,2.20
2022-09-21T16:48:03.071Z,3.10
2022-09-21T16:50:31.383Z,3.00
2022-09-21T16:52:59.350Z,2.70
2022-09-21T16:55:29.222Z,2.80
2022-09-21T16:57:58.056Z,2.30
2022-09-21T17:00:30.989Z,2.30
2022-09-21T17:02:59.116Z,2.20
2022-09-21T17:05:27.393Z,2.50
2022-09-21T17:07:57.444Z,2.80
2022-09-21T17:10:31.978Z,3.20
2022-09-21T17:13:00.005Z,3.30
2022-09-21T17:15:29.414Z,3.50
2022-09-21T17:17:59.214Z,4.00
2022-09-21T17:20:30.159Z,4.10
2022-09-21T17:22:58.948Z,3.90
2022-09-21T17:25:27.937Z,4.30
2022-09-21T17:27:59.804Z,5.40
2022-09-21T17:30:29.308Z,4.90
2022-09-21T17:32:58.593Z,4.60
2022-09-21T17:35:33.640Z,4.60
2022-09-21T17:38:02.580Z,3.80
2022-09-21T17:40:31.581Z,4.30
2022-09-21T17:43:14.383Z,4.80
2022-09-21T17:45:50.539Z,5.60
2022-09-21T17:48:21.274Z,5.30
2022-09-21T17:50:50.445Z,5.50
2022-09-21T17:53:34.791Z,6.50
2022-09-21T17:56:25.903Z,6.90
2022-09-21T17:59:17.966Z,7.10
2022-09-21T18:01:46.131Z,7.10
2022-09-21T18:04:14.689Z,7.80
2022-09-21T18:06:42.983Z,6.50
2022-09-21T18:09:13.293Z,5.90
2022-09-21T18:11:44.233Z,5.50
2022-09-21T18:14:36.263Z,5.50
2022-09-21T18:17:13.551Z,5.70
2022-09-21T18:19:58.624Z,6.70
2022-09-21T18:22:26.606Z,6.10
2022-09-21T18:24:56.983Z,7.10
2022-09-21T18:27:25.296Z,7.00
2022-09-21T18:29:53.656Z,7.00
2022-09-21T18:32:49.470Z,6.70
2022-09-21T18:35:26.141Z,7.20
2022-09-21T18:38:03.459Z,7.40
2022-09-21T18:41:04.447Z,7.50
2022-09-21T18:44:00.507Z,8.50
2022-09-21T18:46:38.409Z,8.90
2022-09-21T18:49:27.096Z,7.90
2022-09-21T18:52:10.219Z,7.90
2022-09-21T18:54:39.719Z,6.40
2022-09-21T18:57:15.572Z,4.90
2022-09-21T18:59:44.155Z,4.30
2022-09-21T19:02:20.271Z,4.70
2022-09-21T19:04:49.924Z,5.30
2022-09-21T19:07:50.779Z,4.50
2022-09-21T19:10:22.715Z,4.40
2022-09-21T19:12:53.363Z,4.30
2022-09-21T19:16:00.459Z,4.00
2022-09-21T19:18:54.023Z,3.90
2022-09-21T19:21:30.889Z,4.30
2022-09-21T19:24:18.528Z,6.00
2022-09-21T19:26:49.465Z,5.10
2022-09-21T19:29:42.112Z,4.50
2022-09-21T19:32:18.583Z,5.10
2022-09-21T19:34:47.676Z,5.20
2022-09-21T19:37:15.697Z,4.90
2022-09-21T19:39:44.129Z,5.10
2022-09-21T19:42:29.870Z,4.70
2022-09-21T19:45:18.303Z,5.00
2022-09-21T19:47:54.678Z,4.60
2022-09-21T19:50:41.444Z,4.00
2022-09-21T19:56:18.753Z,4.10
2022-09-21T19:59:05.873Z,4.10
2022-09-21T20:01:38.336Z,4.70
2022-09-21T20:04:07.491Z,4.00
2022-09-21T20:06:44.159Z,4.30
2022-09-21T20:09:29.391Z,4.40
2022-09-21T20:12:01.346Z,3.80
2022-09-21T20:15:01.165Z,4.00
2022-09-21T20:17:43.885Z,3.60
2022-09-21T20:20:32.337Z,3.40
2022-09-21T20:23:00.816Z,3.10
2022-09-21T20:25:36.785Z,3.30
2022-09-21T20:28:05.455Z,3.50
2022-09-21T20:30:36.139Z,3.20
2022-09-21T20:33:07.517Z,3.70
2022-09-21T20:35:35.509Z,3.30
2022-09-21T20:38:04.806Z,3.60
2022-09-21T20:40:33.214Z,3.50
2022-09-21T20:43:01.668Z,3.50
2022-09-21T20:45:30.567Z,4.30
2022-09-21T20:48:13.286Z,4.10
2022-09-21T20:50:49.123Z,4.00
2022-09-21T20:53:19.397Z,3.70
2022-09-21T20:55:55.622Z,3.00
2022-09-21T20:58:24.973Z,3.20
2022-09-21T21:00:58.565Z,3.00
2022-09-21T21:03:27.310Z,3.40
2022-09-21T21:06:07.465Z,3.30
2022-09-21T21:08:35.403Z,3.00
2022-09-21T21:11:03.314Z,2.90
2022-09-21T21:13:32.236Z,3.60
2022-09-21T21:16:00.362Z,3.30
2022-09-21T21:18:28.535Z,3.60
2022-09-21T21:21:01.451Z,4.40
2022-09-21T21:23:31.239Z,4.30
2022-09-21T21:26:05.039Z,3.80
2022-09-21T21:28:33.134Z,3.60
2022-09-21T21:31:02.003Z,3.60
2022-09-21T21:33:30.302Z,3.90
2022-09-21T21:36:04.668Z,3.60
2022-09-21T21:38:32.771Z,3.60
2022-09-21T21:41:00.743Z,3.70
2022-09-21T21:43:33.211Z,3.80
2022-09-21T21:46:02.836Z,3.50
2022-09-21T21:48:31.203Z,3.50
2022-09-21T21:51:03.778Z,3.40
2022-09-21T21:53:39.406Z,3.30
2022-09-21T21:56:13.041Z,3.60
2022-09-21T21:58:42.077Z,4.20
2022-09-21T22:01:12.379Z,3.40
2022-09-21T22:03:41.799Z,2.80
2022-09-21T22:06:10.615Z,2.70
2022-09-21T22:08:40.807Z,3.00
2022-09-21T22:11:08.976Z,2.80
2022-09-21T22:13:39.164Z,2.80
2022-09-21T22:16:15.628Z,2.60
2022-09-21T22:18:44.259Z,2.90
2022-09-21T22:21:18.168Z,3.80
2022-09-21T22:23:46.238Z,3.00
2022-09-21T22:26:16.659Z,2.90
2022-09-21T22:28:46.786Z,2.80
2022-09-21T22:31:23.829Z,3.10
2022-09-21T22:33:53.984Z,3.30
2022-09-21T22:36:23.969Z,3.10
2022-09-21T22:38:53.670Z,2.90
2022-09-21T22:41:24.773Z,2.80
2022-09-21T22:43:54.788Z,3.20
2022-09-21T22:46:24.386Z,3.20
2022-09-21T22:48:52.863Z,3.80
2022-09-21T22:51:21.755Z,3.80
2022-09-21T22:53:50.955Z,4.70
2022-09-21T22:56:21.683Z,4.60
2022-09-21T22:58:55.282Z,4.50
2022-09-21T23:01:25.779Z,4.30
2022-09-21T23:04:00.109Z,4.10
2022-09-21T23:06:33.015Z,3.90
2022-09-21T23:09:03.808Z,4.00
2022-09-21T23:11:37.766Z,3.50
2022-09-21T23:14:06.051Z,3.30
2022-09-21T23:16:34.245Z,3.20
2022-09-21T23:19:02.387Z,3.80
2022-09-21T23:21:30.769Z,3.50
2022-09-21T23:24:01.405Z,2.70
2022-09-21T23:26:32.219Z,3.10
2022-09-21T23:29:03.046Z,2.90
2022-09-21T23:31:32.736Z,3.10
2022-09-21T23:34:07.460Z,3.00
2022-09-21T23:36:36.609Z,2.80
2022-09-21T23:39:07.307Z,3.10
2022-09-21T23:41:36.343Z,3.00
2022-09-21T23:44:05.089Z,2.90
2022-09-21T23:46:36.054Z,3.10
2022-09-21T23:49:05.054Z,3.10
2022-09-21T23:51:34.051Z,2.70
2022-09-21T23:54:02.428Z,3.10
2022-09-21T23:56:31.933Z,3.30
2022-09-21T23:59:00.418Z,3.00
